Time;durP1;ratioP1;P1;durP2;ratioP2;P2;SDS_P1;SDS_P2;PMS_P1;PMS_P2;Temp;Humidity;BMP_temperature;BMP_pressure;BME280_temperature;BME280_humidity;BME280_pressure;Samples;Min_cycle;Max_cycle;Signal;HPM_P1;HPM_P2
2023/04/17 00:00:27;;;;;;;42.42;31.75;;;;;;;8.12;100.00;102505.56;5062161;28;20570;-81
2023/04/17 00:02:55;;;;;;;41.63;31.98;;;;;;;8.10;100.00;102496.91;5046654;28;20036;-81
2023/04/17 00:05:25;;;;;;;41.63;31.67;;;;;;;8.12;100.00;102494.22;5049543;28;20115;-81
2023/04/17 00:07:50;;;;;;;43.45;32.08;;;;;;;8.12;100.00;102495.06;5056760;28;20478;-81
2023/04/17 00:10:15;;;;;;;42.67;32.55;;;;;;;8.09;100.00;102500.44;5038173;28;20021;-80
2023/04/17 00:12:41;;;;;;;43.83;31.70;;;;;;;8.09;100.00;102500.44;5047428;28;20029;-81
2023/04/17 00:15:14;;;;;;;50.63;33.25;;;;;;;8.10;100.00;102499.53;5047887;28;20442;-81
2023/04/17 00:17:39;;;;;;;45.10;32.95;;;;;;;8.07;100.00;102496.16;5035490;28;20025;-80
2023/04/17 00:20:09;;;;;;;40.58;32.40;;;;;;;8.11;100.00;102503.00;5049401;28;20083;-82
2023/04/17 00:22:37;;;;;;;41.60;33.25;;;;;;;8.13;100.00;102502.03;5048648;28;20470;-81
2023/04/17 00:25:06;;;;;;;48.03;33.72;;;;;;;8.10;100.00;102494.28;5050127;28;20393;-81
2023/04/17 00:27:43;;;;;;;48.20;33.90;;;;;;;8.10;100.00;102494.28;5049582;28;20396;-81
2023/04/17 00:30:09;;;;;;;44.22;33.88;;;;;;;8.10;100.00;102490.81;5055030;28;20041;-81
2023/04/17 00:32:34;;;;;;;46.78;34.17;;;;;;;8.11;100.00;102488.13;5048498;28;20052;-81
2023/04/17 00:35:06;;;;;;;41.65;31.40;;;;;;;8.12;100.00;102489.81;5034890;28;20052;-81
2023/04/17 00:37:31;;;;;;;40.95;31.48;;;;;;;8.14;100.00;102488.00;5056637;28;20079;-81
2023/04/17 00:39:57;;;;;;;40.50;32.47;;;;;;;8.14;100.00;102481.91;5040638;28;20477;-81
2023/04/17 00:42:22;;;;;;;40.33;32.38;;;;;;;8.17;100.00;102471.31;5048925;28;20654;-81
2023/04/17 00:44:47;;;;;;;43.63;33.08;;;;;;;8.12;100.00;102468.00;5048938;28;20067;-81
2023/04/17 00:47:16;;;;;;;40.60;31.67;;;;;;;8.14;100.00;102468.78;5048384;28;20049;-81
2023/04/17 00:49:41;;;;;;;46.08;33.20;;;;;;;8.12;100.00;102463.63;5050391;28;20029;-81
2023/04/17 00:52:16;;;;;;;38.90;31.48;;;;;;;8.14;100.00;102461.78;5043554;28;20439;-81
2023/04/17 00:54:45;;;;;;;43.17;32.47;;;;;;;8.10;100.00;102465.44;5046248;28;20037;-81
2023/04/17 00:57:14;;;;;;;40.10;31.70;;;;;;;8.09;100.00;102471.59;5064665;28;20694;-81
2023/04/17 00:59:45;;;;;;;40.60;31.17;;;;;;;8.10;100.00;102473.31;5048989;28;20028;-81
2023/04/17 01:02:11;;;;;;;41.20;31.40;;;;;;;8.10;100.00;102470.69;5044803;28;20124;-81
2023/04/17 01:04:39;;;;;;;36.33;29.50;;;;;;;8.09;100.00;102474.22;5064199;28;20032;-81
2023/04/17 01:07:07;;;;;;;38.30;29.50;;;;;;;8.03;100.00;102469.22;5045015;28;20477;-81
2023/04/17 01:09:39;;;;;;;36.60;28.92;;;;;;;8.02;100.00;102467.50;5032591;28;20033;-81
2023/04/17 01:12:24;;;;;;;34.45;28.27;;;;;;;8.03;100.00;102468.34;5028775;28;20445;-81
2023/04/17 01:14:54;;;;;;;35.83;27.83;;;;;;;7.99;100.00;102471.97;5047380;28;20029;-81
2023/04/17 01:17:43;;;;;;;35.22;28.27;;;;;;;8.00;100.00;102474.53;5047628;28;20025;-81
2023/04/17 01:20:12;;;;;;;33.05;27.70;;;;;;;7.99;100.00;102467.59;5028434;28;20083;-81
2023/04/17 01:22:46;;;;;;;37.63;29.02;;;;;;;7.97;100.00;102474.66;5048161;28;20400;-81
2023/04/17 01:25:41;;;;;;;34.00;28.45;;;;;;;8.02;100.00;102477.97;5045957;28;20027;-82
2023/04/17 01:28:13;;;;;;;36.35;28.85;;;;;;;7.99;100.00;102480.69;5043297;28;20041;-82
2023/04/17 01:30:39;;;;;;;34.58;28.80;;;;;;;7.94;100.00;102477.38;5048715;28;20028;-82
2023/04/17 01:33:07;;;;;;;34.30;28.40;;;;;;;7.90;100.00;102472.31;5046813;28;20057;-81
2023/04/17 01:35:39;;;;;;;38.08;29.73;;;;;;;7.92;100.00;102476.59;5045816;28;20112;-80
2023/04/17 01:38:04;;;;;;;34.10;28.00;;;;;;;7.95;100.00;102478.25;5041382;28;20060;-83
2023/04/17 01:40:29;;;;;;;35.13;28.23;;;;;;;7.94;100.00;102474.78;5061204;28;20416;-81
2023/04/17 01:42:58;;;;;;;37.20;28.85;;;;;;;7.92;100.00;102479.22;5058928;28;20642;-81
2023/04/17 01:45:26;;;;;;;37.55;29.35;;;;;;;7.92;100.00;102478.34;5029304;28;20029;-82
2023/04/17 01:47:53;;;;;;;35.95;29.83;;;;;;;7.89;100.00;102481.94;5043701;28;20393;-81
2023/04/17 01:50:22;;;;;;;37.75;30.30;;;;;;;7.89;100.00;102481.09;5047825;28;20045;-81
2023/04/17 01:52:53;;;;;;;37.63;29.33;;;;;;;7.85;100.00;102480.34;5047130;28;20063;-81
2023/04/17 01:55:24;;;;;;;36.78;29.38;;;;;;;7.89;100.00;102476.69;5046974;28;20021;-81
2023/04/17 01:57:53;;;;;;;38.95;29.70;;;;;;;7.85;100.00;102475.09;5046390;28;20444;-81
2023/04/17 02:00:28;;;;;;;38.95;29.90;;;;;;;7.88;100.00;102482.00;5046361;28;20031;-81
2023/04/17 02:03:08;;;;;;;37.50;29.58;;;;;;;7.90;100.00;102482.81;5048129;28;20032;-81
2023/04/17 02:05:56;;;;;;;36.58;28.58;;;;;;;7.90;100.00;102483.66;5047501;28;20436;-81
2023/04/17 02:08:25;;;;;;;39.83;29.05;;;;;;;7.90;100.00;102488.91;5045365;28;20090;-81
2023/04/17 02:10:50;;;;;;;34.17;28.00;;;;;;;7.89;100.00;102484.56;5047680;28;20029;-81
2023/04/17 02:13:16;;;;;;;36.40;28.75;;;;;;;7.87;100.00;102489.00;5048173;28;20481;-81
2023/04/17 02:15:41;;;;;;;35.20;27.75;;;;;;;7.89;100.00;102487.19;5047631;28;20124;-81
2023/04/17 02:18:10;;;;;;;33.85;27.05;;;;;;;7.90;100.00;102483.66;5038605;28;20029;-81
2023/04/17 02:20:38;;;;;;;37.20;27.42;;;;;;;7.90;100.00;102488.03;5031822;28;20152;-81
2023/04/17 02:23:06;;;;;;;36.30;27.02;;;;;;;7.87;100.00;102483.78;5031797;28;20025;-81
2023/04/17 02:25:35;;;;;;;33.08;27.10;;;;;;;7.88;100.00;102484.63;5067904;28;20021;-81
2023/04/17 02:28:09;;;;;;;33.35;26.63;;;;;;;7.88;100.00;102482.00;5052266;28;20025;-81
2023/04/17 02:30:35;;;;;;;37.28;28.60;;;;;;;7.85;100.00;102477.72;5051364;28;20033;-81
2023/04/17 02:33:00;;;;;;;33.13;27.73;;;;;;;7.89;100.00;102476.69;5045537;28;21081;-81
2023/04/17 02:35:39;;;;;;;35.65;28.20;;;;;;;7.86;100.00;102475.06;5049685;28;20249;-81
2023/04/17 02:38:15;;;;;;;34.70;28.25;;;;;;;7.87;100.00;102481.16;5046922;28;20040;-81
2023/04/17 02:40:40;;;;;;;34.88;28.08;;;;;;;7.88;100.00;102479.38;5052359;28;20103;-81
2023/04/17 02:43:05;;;;;;;36.88;29.13;;;;;;;7.86;100.00;102476.81;5050215;28;20112;-81
2023/04/17 02:45:34;;;;;;;35.00;29.17;;;;;;;7.87;100.00;102481.16;5051626;28;20025;-81
2023/04/17 02:48:08;;;;;;;35.17;28.45;;;;;;;7.88;100.00;102485.47;5049418;28;20021;-82
2023/04/17 02:50:33;;;;;;;37.40;29.35;;;;;;;7.84;100.00;102484.75;5057731;28;20025;-81
2023/04/17 02:53:04;;;;;;;37.85;30.13;;;;;;;7.77;100.00;102482.41;5041133;28;20037;-81
2023/04/17 02:55:33;;;;;;;36.70;31.00;;;;;;;7.75;100.00;102489.47;5047117;28;20108;-81
2023/04/17 02:58:10;;;;;;;38.67;31.48;;;;;;;7.70;100.00;102481.78;5050727;28;20016;-81
2023/04/17 03:00:37;;;;;;;38.85;31.17;;;;;;;7.74;100.00;102488.59;5040971;28;20416;-81
2023/04/17 03:03:06;;;;;;;38.75;29.98;;;;;;;7.75;100.00;102484.22;5050169;28;20024;-81
2023/04/17 03:05:34;;;;;;;37.67;30.42;;;;;;;7.72;100.00;102489.56;5051602;28;20056;-81
2023/04/17 03:08:07;;;;;;;40.65;32.05;;;;;;;7.72;100.00;102489.56;5047405;28;20520;-82
2023/04/17 03:10:48;;;;;;;41.15;32.17;;;;;;;7.73;100.00;102491.28;5050010;28;20144;-81
2023/04/17 03:13:14;;;;;;;41.72;31.73;;;;;;;7.69;100.00;102489.69;5032587;28;20040;-82
2023/04/17 03:15:43;;;;;;;42.83;32.60;;;;;;;7.69;100.00;102484.44;5040211;28;20026;-81
2023/04/17 03:18:08;;;;;;;46.97;34.22;;;;;;;7.67;100.00;102492.38;5048815;28;20497;-81
2023/04/17 03:20:39;;;;;;;44.08;33.03;;;;;;;7.68;100.00;102487.97;5048966;28;20167;-81
2023/04/17 03:23:05;;;;;;;48.65;34.63;;;;;;;7.65;100.00;102496.81;5049289;28;20032;-81
2023/04/17 03:25:30;;;;;;;45.75;35.20;;;;;;;7.62;100.00;102488.19;5050146;28;20025;-81
2023/04/17 03:27:58;;;;;;;46.70;34.63;;;;;;;7.58;100.00;102497.03;5051120;28;20079;-81
2023/04/17 03:30:26;;;;;;;49.00;35.35;;;;;;;7.54;100.00;102493.69;5049607;28;20040;-81
2023/04/17 03:32:56;;;;;;;45.47;35.35;;;;;;;7.54;100.00;102489.28;5045723;28;20120;-81
2023/04/17 03:35:21;;;;;;;45.40;34.25;;;;;;;7.57;100.00;102490.09;5028739;28;20064;-82
2023/04/17 03:37:47;;;;;;;43.90;34.00;;;;;;;7.57;100.00;102487.47;5031958;28;20068;-81
2023/04/17 03:40:12;;;;;;;49.80;35.13;;;;;;;7.57;100.00;102490.09;5048584;28;20180;-82
2023/04/17 03:42:40;;;;;;;47.08;34.80;;;;;;;7.54;100.00;102484.06;5044228;28;20036;-81
2023/04/17 03:45:10;;;;;;;49.25;35.10;;;;;;;7.52;100.00;102488.50;5049712;28;20104;-82
2023/04/17 03:47:56;;;;;;;48.65;34.38;;;;;;;7.54;100.00;102486.66;5049049;28;20056;-81
2023/04/17 03:50:21;;;;;;;47.08;34.50;;;;;;;7.53;100.00;102484.97;5045455;28;20041;-81
2023/04/17 03:52:53;;;;;;;49.97;34.22;;;;;;;7.54;100.00;102483.19;5038801;28;20068;-81
2023/04/17 03:55:22;;;;;;;46.08;34.30;;;;;;;7.52;100.00;102483.25;5064457;28;20049;-81
2023/04/17 03:57:50;;;;;;;47.47;34.83;;;;;;;7.57;100.00;102479.63;5050106;28;20035;-81
2023/04/17 04:00:20;;;;;;;43.72;33.85;;;;;;;7.58;100.00;102484.78;5047165;28;20044;-82
2023/04/17 04:02:46;;;;;;;45.08;33.80;;;;;;;7.52;100.00;102491.13;5050774;28;20438;-81
2023/04/17 04:05:14;;;;;;;43.75;33.08;;;;;;;7.56;100.00;102494.47;5047485;28;20025;-81
2023/04/17 04:07:41;;;;;;;44.17;32.70;;;;;;;7.50;100.00;102487.69;5049869;28;20017;-81
2023/04/17 04:10:09;;;;;;;46.35;34.30;;;;;;;7.46;100.00;102496.56;5048504;28;20504;-82
2023/04/17 04:12:35;;;;;;;44.30;33.72;;;;;;;7.46;100.00;102483.47;5046423;28;20039;-81
2023/04/17 04:15:10;;;;;;;44.38;34.35;;;;;;;7.45;100.00;102481.75;5046956;28;20020;-81
2023/04/17 04:17:38;;;;;;;43.83;34.28;;;;;;;7.46;100.00;102480.84;5051013;28;20055;-81
2023/04/17 04:20:12;;;;;;;42.58;33.03;;;;;;;7.49;100.00;102485.97;5050352;28;20028;-81
2023/04/17 04:22:37;;;;;;;47.35;33.75;;;;;;;7.50;100.00;102485.06;5043869;28;20028;-81
2023/04/17 04:25:09;;;;;;;42.10;32.85;;;;;;;7.48;100.00;102489.50;5030392;28;20025;-81
2023/04/17 04:27:34;;;;;;;43.37;33.80;;;;;;;7.47;100.00;102485.19;5029898;28;20060;-81
2023/04/17 04:30:09;;;;;;;46.83;33.35;;;;;;;7.48;100.00;102494.75;5029873;28;20053;-81
2023/04/17 04:32:36;;;;;;;42.67;33.50;;;;;;;7.45;100.00;102492.25;5028251;28;20045;-81
2023/04/17 04:35:02;;;;;;;45.70;34.58;;;;;;;7.45;100.00;102492.25;5039597;28;20039;-81
2023/04/17 04:37:31;;;;;;;44.63;34.28;;;;;;;7.45;100.00;102500.09;5044981;28;20127;-81
2023/04/17 04:40:03;;;;;;;41.42;33.47;;;;;;;7.40;100.00;102496.78;5046753;28;20546;-81
2023/04/17 04:42:28;;;;;;;43.75;34.80;;;;;;;7.45;100.00;102502.72;5046040;28;20074;-81
2023/04/17 04:45:21;;;;;;;46.90;34.97;;;;;;;7.37;100.00;102502.13;5046950;28;20029;-81
2023/04/17 04:47:55;;;;;;;48.63;34.70;;;;;;;7.37;100.00;102504.75;5030698;28;20033;-81
2023/04/17 04:50:20;;;;;;;51.25;35.03;;;;;;;7.28;100.00;102507.69;5029163;28;20033;-82
2023/04/17 04:52:48;;;;;;;49.67;36.38;;;;;;;7.28;100.00;102509.44;5043712;28;20025;-81
2023/04/17 04:55:20;;;;;;;46.42;35.95;;;;;;;7.28;100.00;102507.69;5049112;28;20025;-81
2023/04/17 04:57:53;;;;;;;48.05;35.95;;;;;;;7.30;100.00;102502.38;5040116;28;20103;-82
2023/04/17 05:00:19;;;;;;;49.60;37.38;;;;;;;7.29;100.00;102509.38;5044337;28;20028;-81
2023/04/17 05:02:45;;;;;;;46.15;35.67;;;;;;;7.28;100.00;102507.69;5048212;28;20048;-81
2023/04/17 05:05:19;;;;;;;48.50;36.35;;;;;;;7.29;100.00;102506.78;5048767;28;20381;-82
2023/04/17 05:07:47;;;;;;;50.10;37.15;;;;;;;7.29;100.00;102516.38;5041031;28;20033;-81
2023/04/17 05:10:15;;;;;;;48.58;37.00;;;;;;;7.29;100.00;102522.47;5029155;28;20029;-81
2023/04/17 05:12:41;;;;;;;49.38;37.58;;;;;;;7.32;100.00;102518.91;5054524;28;20039;-81
2023/04/17 05:15:16;;;;;;;50.88;37.15;;;;;;;7.29;100.00;102521.63;5049461;28;20037;-81
2023/04/17 05:17:44;;;;;;;49.33;36.47;;;;;;;7.32;100.00;102525.00;5047898;28;20033;-81
2023/04/17 05:20:13;;;;;;;49.20;37.22;;;;;;;7.27;100.00;102519.06;5047813;28;20017;-82
2023/04/17 05:22:44;;;;;;;48.63;36.08;;;;;;;7.28;100.00;102523.38;5049996;28;20027;-80
2023/04/17 05:25:25;;;;;;;52.22;39.38;;;;;;;7.30;100.00;102533.81;5048395;28;20029;-83
2023/04/17 05:27:50;;;;;;;49.40;37.33;;;;;;;7.27;100.00;102528.69;5048242;28;20036;-81
2023/04/17 05:30:15;;;;;;;46.15;36.03;;;;;;;7.29;100.00;102526.88;5047880;28;20029;-81
2023/04/17 05:32:41;;;;;;;47.95;37.08;;;;;;;7.29;100.00;102538.19;5047164;28;20119;-81
2023/04/17 05:35:08;;;;;;;50.95;37.97;;;;;;;7.29;100.00;102532.94;5046992;28;20025;-81
2023/04/17 05:37:34;;;;;;;45.92;37.05;;;;;;;7.32;100.00;102527.63;5045842;28;20040;-81
2023/04/17 05:40:13;;;;;;;52.80;39.05;;;;;;;7.33;100.00;102534.56;5048587;28;20037;-81
2023/04/17 05:42:39;;;;;;;53.60;38.72;;;;;;;7.34;100.00;102524.94;5049913;28;20564;-81
2023/04/17 05:45:05;;;;;;;50.75;39.05;;;;;;;7.35;100.00;102531.88;5047854;28;20033;-81
2023/04/17 05:47:37;;;;;;;48.28;38.40;;;;;;;7.35;100.00;102531.88;5047791;28;20056;-81
2023/04/17 05:50:11;;;;;;;50.42;38.30;;;;;;;7.38;100.00;102542.25;5067023;28;20064;-81
2023/04/17 05:52:43;;;;;;;53.05;39.25;;;;;;;7.33;100.00;102544.19;5053841;28;20077;-81
2023/04/17 05:55:11;;;;;;;57.38;40.03;;;;;;;7.33;100.00;102539.78;5051609;28;20033;-81
2023/04/17 05:57:37;;;;;;;51.97;40.28;;;;;;;7.32;100.00;102538.09;5068728;28;20120;-81
2023/04/17 06:00:11;;;;;;;56.42;41.90;;;;;;;7.32;100.00;102535.47;5051605;28;20488;-81
2023/04/17 06:02:41;;;;;;;50.03;38.92;;;;;;;7.36;100.00;102539.69;5051535;28;20051;-81
2023/04/17 06:05:08;;;;;;;57.22;40.80;;;;;;;7.34;100.00;102536.28;5051218;28;20029;-81
2023/04/17 06:07:37;;;;;;;51.90;39.63;;;;;;;7.34;100.00;102535.41;5051666;28;20024;-81
2023/04/17 06:10:07;;;;;;;55.72;40.80;;;;;;;7.34;100.00;102546.75;5051401;28;20091;-81
2023/04/17 06:12:36;;;;;;;56.13;39.78;;;;;;;7.35;100.00;102552.84;5052097;28;20546;-81
2023/04/17 06:15:08;;;;;;;56.25;40.00;;;;;;;7.37;100.00;102549.25;5067319;28;20112;-81
2023/04/17 06:17:36;;;;;;;55.85;41.15;;;;;;;7.32;100.00;102559.03;5033359;28;20024;-81
2023/04/17 06:20:11;;;;;;;54.72;41.08;;;;;;;7.27;100.00;102560.94;5031372;28;20021;-81
2023/04/17 06:22:43;;;;;;;54.47;41.15;;;;;;;7.33;100.00;102559.88;5030816;28;20448;-81
2023/04/17 06:25:08;;;;;;;55.70;41.17;;;;;;;7.31;100.00;102557.31;5032937;28;20021;-82
2023/04/17 06:27:37;;;;;;;56.38;40.63;;;;;;;7.29;100.00;102561.75;5032960;28;20025;-81
2023/04/17 06:30:14;;;;;;;56.42;41.33;;;;;;;7.34;100.00;102559.84;5031760;28;20025;-82
2023/04/17 06:32:42;;;;;;;55.42;41.65;;;;;;;7.36;100.00;102571.13;5045989;28;20543;-81
2023/04/17 06:35:12;;;;;;;56.75;42.20;;;;;;;7.34;100.00;102572.94;5049638;28;20428;-81
2023/04/17 06:37:37;;;;;;;53.65;40.83;;;;;;;7.35;100.00;102573.78;5049817;28;20388;-82
2023/04/17 06:40:06;;;;;;;56.67;41.83;;;;;;;7.40;100.00;102577.09;5050709;28;20029;-81
2023/04/17 06:42:35;;;;;;;58.47;42.55;;;;;;;7.40;100.00;102575.34;5051221;28;20025;-81
2023/04/17 06:45:00;;;;;;;52.92;40.67;;;;;;;7.41;100.00;102577.06;5050331;28;20028;-81
2023/04/17 06:47:32;;;;;;;59.85;43.70;;;;;;;7.40;100.00;102571.88;5051466;28;20020;-81
2023/04/17 06:49:58;;;;;;;56.33;41.78;;;;;;;7.44;100.00;102563.84;5050968;28;20045;-81
2023/04/17 06:52:25;;;;;;;57.05;41.63;;;;;;;7.47;100.00;102570.75;5062541;28;20066;-81
2023/04/17 06:54:56;;;;;;;59.20;41.28;;;;;;;7.48;100.00;102583.78;5051569;28;20040;-82
2023/04/17 06:57:27;;;;;;;59.90;42.47;;;;;;;7.50;100.00;102581.13;5050107;28;20025;-82
2023/04/17 06:59:55;;;;;;;57.83;41.30;;;;;;;7.50;100.00;102581.13;5050788;28;20025;-82
2023/04/17 07:02:20;;;;;;;56.55;41.05;;;;;;;7.56;100.00;102586.16;5049414;28;20083;-81
2023/04/17 07:04:53;;;;;;;57.85;41.55;;;;;;;7.53;100.00;102587.09;5050598;28;20028;-81
2023/04/17 07:07:18;;;;;;;;;;;;;;;7.67;100.00;102586.66;5051052;28;20028;-80
2023/04/17 07:09:46;;;;;;;57.83;41.28;;;;;;;7.63;100.00;102587.69;5065651;28;19912;-81
2023/04/17 07:12:15;;;;;;;55.72;41.78;;;;;;;7.63;100.00;102599.94;5050352;28;20025;-83
2023/04/17 07:14:41;;;;;;;54.72;40.20;;;;;;;7.60;100.00;102598.22;5049299;28;20041;-80
2023/04/17 07:17:06;;;;;;;58.00;41.33;;;;;;;7.62;100.00;102599.06;5047512;28;20028;-81
2023/04/17 07:19:33;;;;;;;54.45;40.20;;;;;;;7.60;100.00;102606.09;5049039;28;20032;-81
2023/04/17 07:22:08;;;;;;;55.47;40.90;;;;;;;7.61;100.00;102599.13;5049598;28;20014;-81
2023/04/17 07:24:34;;;;;;;53.22;39.45;;;;;;;7.59;100.00;102607.00;5045199;28;20063;-81
2023/04/17 07:27:05;;;;;;;55.22;41.38;;;;;;;7.54;100.00;102607.16;5046440;28;20431;-81
2023/04/17 07:29:34;;;;;;;54.70;40.47;;;;;;;7.56;100.00;102612.34;5050675;28;20024;-82
2023/04/17 07:32:13;;;;;;;53.04;40.41;;;;;;;7.55;100.00;102615.88;4972050;28;14818057;-81
2023/04/17 07:34:40;;;;;;;54.17;40.65;;;;;;;7.61;100.00;102617.47;5049181;28;20849;-82
2023/04/17 07:37:09;;;;;;;55.72;42.03;;;;;;;7.63;100.00;102620.88;5046362;28;20124;-81
2023/04/17 07:39:34;;;;;;;53.83;40.30;;;;;;;7.70;100.00;102614.53;5048141;28;20055;-81
2023/04/17 07:42:15;;;;;;;55.35;40.33;;;;;;;7.72;100.00;102620.56;5050154;28;20106;-81
2023/04/17 07:44:41;;;;;;;53.47;39.88;;;;;;;7.75;100.00;102612.59;5048675;28;20037;-81
2023/04/17 07:47:15;;;;;;;51.60;40.00;;;;;;;7.80;100.00;102615.91;5040302;28;20604;-81
2023/04/17 07:49:40;;;;;;;52.30;39.60;;;;;;;7.85;100.00;102616.63;5046210;28;20036;-81
2023/04/17 07:52:06;;;;;;;53.20;40.38;;;;;;;7.87;100.00;102622.66;5030664;28;20486;-81
2023/04/17 07:54:31;;;;;;;53.25;41.42;;;;;;;7.92;100.00;102617.25;5029783;28;20110;-81
2023/04/17 07:57:02;;;;;;;51.40;38.95;;;;;;;7.99;100.00;102614.38;5030560;28;20116;-83
2023/04/17 07:59:40;;;;;;;;;;;;;;;;;;;;;
2023/04/17 08:02:07;;;;;;;49.70;40.63;;;;;;;8.11;100.00;102616.56;5047768;28;20039;-83
2023/04/17 08:04:33;;;;;;;49.63;40.15;;;;;;;8.11;100.00;102624.44;5050089;28;20067;-83
2023/04/17 08:07:09;;;;;;;52.75;42.22;;;;;;;8.12;100.00;102625.31;5050772;28;20037;-83
2023/04/17 08:09:58;;;;;;;55.70;42.42;;;;;;;8.11;100.00;102621.81;5051615;28;20549;-83
2023/04/17 08:12:23;;;;;;;52.45;41.78;;;;;;;8.24;100.00;102621.38;5042749;28;20055;-82
2023/04/17 08:14:52;;;;;;;47.83;38.58;;;;;;;8.30;100.00;102624.63;5050444;28;20028;-83
2023/04/17 08:17:21;;;;;;;44.08;37.40;;;;;;;8.47;100.00;102624.06;5040774;28;20021;-83
2023/04/17 08:20:10;;;;;;;46.95;38.28;;;;;;;8.56;100.00;102626.34;5061378;28;20123;-81
2023/04/17 08:22:48;;;;;;;44.90;36.25;;;;;;;8.71;100.00;102636.28;5046676;28;20025;-81
2023/04/17 08:25:16;;;;;;;43.42;34.97;;;;;;;8.72;100.00;102637.13;5032330;28;20029;-81
2023/04/17 08:27:49;;;;;;;40.30;34.10;;;;;;;8.71;100.00;102635.41;5041892;28;20028;-81
2023/04/17 08:30:19;;;;;;;41.08;33.88;;;;;;;8.76;100.00;102633.47;5049365;28;20029;-81
2023/04/17 08:32:48;;;;;;;44.25;32.53;;;;;;;8.75;100.00;102643.09;5043368;28;20045;-81
2023/04/17 08:35:16;;;;;;;37.78;32.58;;;;;;;8.88;100.00;102632.16;5045850;28;20032;-81
2023/04/17 08:37:49;;;;;;;37.30;31.33;;;;;;;8.89;100.00;102639.13;5046165;28;20028;-81
2023/04/17 08:40:27;;;;;;;41.63;32.05;;;;;;;8.89;100.00;102639.13;5046367;28;20032;-81
2023/04/17 08:42:53;;;;;;;35.53;30.80;;;;;;;8.93;100.00;102635.47;5048693;28;20116;-81
2023/04/17 08:45:23;;;;;;;38.50;30.98;;;;;;;8.89;100.00;102639.13;5046803;28;20112;-81
2023/04/17 08:47:49;;;;;;;38.85;31.98;;;;;;;8.92;100.00;102636.38;5048590;28;20029;-81
2023/04/17 08:50:22;;;;;;;39.88;31.63;;;;;;;8.95;100.00;102638.88;5035529;28;20095;-81
2023/04/17 08:52:53;;;;;;;40.75;33.03;;;;;;;9.01;100.00;102639.50;5030484;28;20079;-81
2023/04/17 08:55:33;;;;;;;45.40;34.45;;;;;;;9.02;100.00;102637.75;5029894;28;20021;-81
2023/04/17 08:58:08;;;;;;;44.38;32.42;;;;;;;9.08;100.00;102635.72;5029982;28;20445;-81
2023/04/17 09:00:51;;;;;;;38.90;32.05;;;;;;;9.06;100.00;102640.19;5046953;28;20099;-83
2023/04/17 09:03:17;;;;;;;42.33;32.33;;;;;;;9.16;100.00;102637.19;5029431;28;20033;-83
2023/04/17 09:05:45;;;;;;;42.97;33.08;;;;;;;9.30;100.00;102640.16;5030298;28;20104;-83
2023/04/17 09:08:22;;;;;;;39.00;31.55;;;;;;;9.45;100.00;102644.78;5035398;28;20021;-83
2023/04/17 09:10:58;;;;;;;33.45;29.83;;;;;;;9.52;100.00;102640.13;5028209;28;20022;-82
2023/04/17 09:13:29;;;;;;;37.45;31.63;;;;;;;9.69;100.00;102638.53;5040965;28;20401;-82
2023/04/17 09:16:12;;;;;;;41.15;32.17;;;;;;;9.76;99.29;102644.38;5048074;28;20110;-82
2023/04/17 09:18:41;;;;;;;38.95;30.77;;;;;;;9.79;99.88;102636.38;5045300;28;20048;-83
2023/04/17 09:21:17;;;;;;;37.08;30.90;;;;;;;9.83;99.25;102635.31;5046142;28;20025;-82
2023/04/17 09:23:58;;;;;;;38.75;31.55;;;;;;;9.97;99.35;102638.19;5046614;28;20037;-82
2023/04/17 09:26:29;;;;;;;39.50;31.95;;;;;;;9.97;97.91;102640.81;5047266;28;20036;-82
2023/04/17 09:29:17;;;;;;;40.20;30.20;;;;;;;10.07;97.64;102653.59;5048879;28;20175;-82
2023/04/17 09:31:46;;;;;;;35.95;31.23;;;;;;;10.15;96.50;102640.97;5048155;28;20891;-82
2023/04/17 09:34:15;;;;;;;36.92;30.35;;;;;;;10.12;94.99;102647.22;5046595;28;20510;-82
2023/04/17 09:36:44;;;;;;;37.30;30.92;;;;;;;10.16;95.37;102632.16;5045188;28;20448;-82
2023/04/17 09:39:23;;;;;;;36.25;30.15;;;;;;;10.28;96.31;102636.91;5047747;28;20036;-82
2023/04/17 09:42:16;;;;;;;34.22;29.98;;;;;;;10.44;95.05;102631.84;5048690;28;20029;-81
2023/04/17 09:44:41;;;;;;;;;;;;;;;10.63;96.70;102644.09;5049079;28;20029;-81
2023/04/17 09:47:08;;;;;;;34.42;30.48;;;;;;;10.57;92.65;102633.84;5047106;28;19928;-81
2023/04/17 09:49:52;;;;;;;34.72;30.40;;;;;;;10.75;92.70;102633.91;5048513;28;20366;-81
2023/04/17 09:52:34;;;;;;;;;;;;;;;;;;;;;
2023/04/17 09:55:15;;;;;;;33.65;29.70;;;;;;;11.13;91.57;102638.25;5047410;28;20020;-81
2023/04/17 09:57:41;;;;;;;32.78;28.58;;;;;;;11.11;91.49;102634.84;5062391;28;20032;-83
2023/04/17 10:00:18;;;;;;;32.45;28.55;;;;;;;11.20;90.02;102638.81;5045962;28;20055;-87
2023/04/17 10:02:48;;;;;;;33.40;28.98;;;;;;;11.41;89.33;102636.94;5029587;28;20439;-85
2023/04/17 10:05:16;;;;;;;32.95;28.92;;;;;;;11.53;87.74;102637.16;5042575;28;20018;-83
2023/04/17 10:07:50;;;;;;;33.25;28.40;;;;;;;11.76;87.62;102630.78;5040765;28;20040;-83
2023/04/17 10:10:35;;;;;;;32.60;26.92;;;;;;;11.98;87.15;102632.34;5025772;28;20029;-83
2023/04/17 10:16:05;;;;;;;31.38;26.65;;;;;;;13.48;77.94;102620.63;5041037;28;20029;-84
2023/04/17 10:19:13;;;;;;;31.57;26.23;;;;;;;14.11;77.66;102610.69;5034514;28;20496;-82
2023/04/17 10:21:42;;;;;;;33.80;26.35;;;;;;;13.52;75.06;102616.00;5048175;28;20409;-84
2023/04/17 10:24:23;;;;;;;28.90;25.58;;;;;;;14.04;77.39;102611.16;5047371;28;20029;-83
2023/04/17 10:26:49;;;;;;;30.23;25.83;;;;;;;14.52;69.92;102619.72;5047828;28;20176;-82
2023/04/17 10:29:22;;;;;;;30.25;24.98;;;;;;;15.08;66.35;102615.25;5045924;28;20017;-83
2023/04/17 10:32:07;;;;;;;30.55;25.40;;;;;;;15.35;69.61;102613.47;5045322;28;20072;-82
2023/04/17 10:37:47;;;;;;;27.25;24.35;;;;;;;15.54;67.31;102605.97;5036921;28;20033;-83
2023/04/17 10:40:36;;;;;;;28.70;23.90;;;;;;;15.99;66.65;102606.50;5046383;28;20029;-83
2023/04/17 10:43:21;;;;;;;29.58;24.13;;;;;;;15.73;66.81;102607.44;5050050;28;20029;-83
2023/04/17 10:46:14;;;;;;;27.75;24.25;;;;;;;14.91;66.35;102611.03;5062643;28;20076;-83
2023/04/17 10:48:53;;;;;;;27.88;24.25;;;;;;;14.40;68.83;102610.66;5050598;28;20029;-82
2023/04/17 10:51:27;;;;;;;31.73;24.35;;;;;;;14.21;68.05;102615.41;5051853;28;20021;-82
2023/04/17 10:53:53;;;;;;;29.52;24.73;;;;;;;14.19;68.80;102606.72;5052111;28;20508;-82
2023/04/17 10:56:24;;;;;;;28.80;24.55;;;;;;;14.00;67.98;102606.94;5049709;28;20423;-82
2023/04/17 10:59:07;;;;;;;28.48;24.27;;;;;;;13.85;68.50;102603.44;5050150;28;20048;-82
2023/04/17 11:01:47;;;;;;;30.52;24.45;;;;;;;14.05;70.27;102599.63;5050998;28;20115;-82
2023/04/17 11:04:32;;;;;;;26.88;23.02;;;;;;;14.12;67.41;102595.66;5050798;28;20426;-83
2023/04/17 11:07:04;;;;;;;28.33;22.65;;;;;;;14.36;66.98;102596.78;5050783;28;20047;-82
2023/04/17 11:09:30;;;;;;;30.13;23.52;;;;;;;14.54;66.54;102602.78;5050328;28;20020;-83
2023/04/17 11:12:07;;;;;;;27.02;23.63;;;;;;;14.44;64.40;102595.50;5050670;28;20391;-83
2023/04/17 11:14:42;;;;;;;28.55;23.10;;;;;;;14.65;66.78;102588.84;5050716;28;20033;-82
2023/04/17 11:17:08;;;;;;;29.00;24.35;;;;;;;14.81;65.03;102589.59;5050438;28;20024;-83
2023/04/17 11:19:40;;;;;;;27.50;23.95;;;;;;;14.97;65.11;102585.00;5049059;28;20029;-83
2023/04/17 11:22:12;;;;;;;;;;;;;;;15.24;67.04;102592.09;5050693;28;20029;-83
2023/04/17 11:24:37;;;;;;;27.60;23.55;;;;;;;14.85;63.69;102590.25;5050578;28;20454;-82
2023/04/17 11:27:08;;;;;;;26.60;22.60;;;;;;;14.80;64.19;102594.94;5050435;28;20103;-85
2023/04/17 11:29:34;;;;;;;26.10;21.38;;;;;;;14.75;63.79;102589.94;5050828;28;20028;-82
2023/04/17 11:32:12;;;;;;;26.98;22.42;;;;;;;14.77;64.02;102595.16;5045591;28;20028;-82
2023/04/17 11:34:37;;;;;;;26.55;20.77;;;;;;;14.95;62.10;102592.19;5009527;28;20136;-83